sensor_id;sensor_type;location;lat;lon;timestamp;P1;durP1;ratioP1;P2;durP2;ratioP2
21804;SDS011;11064;47.102;15.452;2024-01-30T05:02:11;13.43;;;6.93;;
21804;SDS011;11064;47.102;15.452;2024-01-30T05:04:37;12.95;;;6.68;;
21804;SDS011;11064;47.102;15.452;2024-01-30T05:07:03;13.35;;;7.22;;
21804;SDS011;11064;47.102;15.452;2024-01-30T05:09:30;10.02;;;6.57;;
21804;SDS011;11064;47.102;15.452;2024-01-30T05:11:56;13.05;;;6.55;;
21804;SDS011;11064;47.102;15.452;2024-01-30T05:14:21;12.55;;;6.75;;
21804;SDS011;11064;47.102;15.452;2024-01-30T05:16:47;16.23;;;7.10;;
21804;SDS011;11064;47.102;15.452;2024-01-30T05:19:13;16.15;;;8.02;;
21804;SDS011;11064;47.102;15.452;2024-01-30T05:21:39;13.18;;;7.80;;
21804;SDS011;11064;47.102;15.452;2024-01-30T05:24:06;13.20;;;7.68;;
21804;SDS011;11064;47.102;15.452;2024-01-30T05:26:32;18.40;;;7.80;;
21804;SDS011;11064;47.102;15.452;2024-01-30T05:28:57;13.73;;;7.47;;
21804;SDS011;11064;47.102;15.452;2024-01-30T05:31:23;16.13;;;7.57;;
21804;SDS011;11064;47.102;15.452;2024-01-30T05:33:51;16.15;;;7.35;;
21804;SDS011;11064;47.102;15.452;2024-01-30T05:36:17;13.80;;;7.32;;
21804;SDS011;11064;47.102;15.452;2024-01-30T05:38:43;14.45;;;7.53;;
21804;SDS011;11064;47.102;15.452;2024-01-30T05:41:08;11.25;;;6.65;;
21804;SDS011;11064;47.102;15.452;2024-01-30T05:43:35;13.52;;;7.53;;
21804;SDS011;11064;47.102;15.452;2024-01-30T05:46:00;13.35;;;6.85;;
21804;SDS011;11064;47.102;15.452;2024-01-30T05:48:26;12.70;;;6.45;;
21804;SDS011;11064;47.102;15.452;2024-01-30T05:50:52;11.88;;;6.15;;
21804;SDS011;11064;47.102;15.452;2024-01-30T05:53:18;11.27;;;6.00;;
21804;SDS011;11064;47.102;15.452;2024-01-30T05:55:43;11.88;;;6.35;;
21804;SDS011;11064;47.102;15.452;2024-01-30T05:58:09;10.70;;;6.45;;
21804;SDS011;11064;47.102;15.452;2024-01-30T06:00:36;13.75;;;6.32;;
21804;SDS011;11064;47.102;15.452;2024-01-30T06:03:02;10.00;;;6.40;;
21804;SDS011;11064;47.102;15.452;2024-01-30T06:05:28;10.60;;;5.78;;
21804;SDS011;11064;47.102;15.452;2024-01-30T06:07:53;13.20;;;6.20;;
21804;SDS011;11064;47.102;15.452;2024-01-30T06:10:19;12.75;;;6.35;;
21804;SDS011;11064;47.102;15.452;2024-01-30T06:12:45;12.05;;;6.25;;
21804;SDS011;11064;47.102;15.452;2024-01-30T06:15:11;13.43;;;6.07;;
21804;SDS011;11064;47.102;15.452;2024-01-30T06:17:37;9.27;;;5.22;;
21804;SDS011;11064;47.102;15.452;2024-01-30T06:20:04;10.50;;;5.97;;
21804;SDS011;11064;47.102;15.452;2024-01-30T06:22:31;14.95;;;7.03;;
21804;SDS011;11064;47.102;15.452;2024-01-30T06:24:57;13.27;;;6.90;;
21804;SDS011;11064;47.102;15.452;2024-01-30T06:27:22;16.10;;;7.05;;
21804;SDS011;11064;47.102;15.452;2024-01-30T06:29:48;14.95;;;7.70;;
21804;SDS011;11064;47.102;15.452;2024-01-30T06:32:14;14.85;;;8.23;;
21804;SDS011;11064;47.102;15.452;2024-01-30T06:34:40;16.38;;;7.50;;
21804;SDS011;11064;47.102;15.452;2024-01-30T06:37:08;15.00;;;7.85;;
21804;SDS011;11064;47.102;15.452;2024-01-30T06:39:34;16.02;;;7.85;;
21804;SDS011;11064;47.102;15.452;2024-01-30T06:42:00;11.05;;;6.43;;
21804;SDS011;11064;47.102;15.452;2024-01-30T06:44:26;11.02;;;6.50;;
21804;SDS011;11064;47.102;15.452;2024-01-30T06:46:52;12.40;;;6.18;;
21804;SDS011;11064;47.102;15.452;2024-01-30T06:49:18;13.52;;;6.20;;
21804;SDS011;11064;47.102;15.452;2024-01-30T06:51:43;11.73;;;6.28;;
21804;SDS011;11064;47.102;15.452;2024-01-30T06:54:09;9.43;;;5.75;;
21804;SDS011;11064;47.102;15.452;2024-01-30T06:56:35;12.18;;;6.75;;
21804;SDS011;11064;47.102;15.452;2024-01-30T06:59:01;11.45;;;6.13;;
21804;SDS011;11064;47.102;15.452;2024-01-30T07:01:29;14.63;;;6.15;;
21804;SDS011;11064;47.102;15.452;2024-01-30T07:03:56;11.77;;;6.05;;
21804;SDS011;11064;47.102;15.452;2024-01-30T07:06:22;12.75;;;5.95;;
21804;SDS011;11064;47.102;15.452;2024-01-30T07:08:49;10.57;;;5.78;;
21804;SDS011;11064;47.102;15.452;2024-01-30T07:11:21;14.02;;;6.53;;
21804;SDS011;11064;47.102;15.452;2024-01-30T07:13:50;13.80;;;6.15;;
21804;SDS011;11064;47.102;15.452;2024-01-30T07:16:16;15.48;;;6.18;;
21804;SDS011;11064;47.102;15.452;2024-01-30T07:18:43;10.80;;;5.72;;
21804;SDS011;11064;47.102;15.452;2024-01-30T07:21:09;11.60;;;5.85;;
21804;SDS011;11064;47.102;15.452;2024-01-30T07:23:35;11.05;;;5.57;;
21804;SDS011;11064;47.102;15.452;2024-01-30T07:26:04;13.93;;;6.07;;
21804;SDS011;11064;47.102;15.452;2024-01-30T07:28:31;10.68;;;5.95;;
21804;SDS011;11064;47.102;15.452;2024-01-30T07:30:58;12.50;;;6.15;;
21804;SDS011;11064;47.102;15.452;2024-01-30T07:33:23;11.95;;;6.22;;
21804;SDS011;11064;47.102;15.452;2024-01-30T07:35:49;11.07;;;6.22;;
21804;SDS011;11064;47.102;15.452;2024-01-30T07:38:17;9.95;;;5.82;;
21804;SDS011;11064;47.102;15.452;2024-01-30T07:40:43;12.48;;;5.85;;
21804;SDS011;11064;47.102;15.452;2024-01-30T07:43:09;13.95;;;6.75;;
21804;SDS011;11064;47.102;15.452;2024-01-30T07:45:35;13.68;;;5.78;;
21804;SDS011;11064;47.102;15.452;2024-01-30T07:48:02;15.85;;;6.30;;
21804;SDS011;11064;47.102;15.452;2024-01-30T07:50:28;13.57;;;6.03;;
21804;SDS011;11064;47.102;15.452;2024-01-30T07:52:59;11.10;;;5.93;;
21804;SDS011;11064;47.102;15.452;2024-01-30T07:58:13;10.18;;;5.78;;
21804;SDS011;11064;47.102;15.452;2024-01-30T08:00:39;14.50;;;7.82;;
21804;SDS011;11064;47.102;15.452;2024-01-30T08:03:05;11.77;;;6.80;;
21804;SDS011;11064;47.102;15.452;2024-01-30T08:05:30;10.43;;;5.63;;
21804;SDS011;11064;47.102;15.452;2024-01-30T08:07:56;16.15;;;5.90;;
21804;SDS011;11064;47.102;15.452;2024-01-30T08:10:22;11.48;;;5.40;;
21804;SDS011;11064;47.102;15.452;2024-01-30T08:12:48;10.45;;;5.78;;
21804;SDS011;11064;47.102;15.452;2024-01-30T08:15:14;10.23;;;5.43;;
21804;SDS011;11064;47.102;15.452;2024-01-30T08:17:40;9.23;;;4.85;;
21804;SDS011;11064;47.102;15.452;2024-01-30T08:20:06;13.98;;;6.45;;
21804;SDS011;11064;47.102;15.452;2024-01-30T08:22:33;11.48;;;5.63;;
21804;SDS011;11064;47.102;15.452;2024-01-30T08:24:59;11.15;;;5.75;;
21804;SDS011;11064;47.102;15.452;2024-01-30T08:27:25;11.27;;;6.50;;
21804;SDS011;11064;47.102;15.452;2024-01-30T08:29:51;12.02;;;6.68;;
21804;SDS011;11064;47.102;15.452;2024-01-30T08:32:17;12.85;;;5.82;;
21804;SDS011;11064;47.102;15.452;2024-01-30T08:34:43;13.90;;;6.50;;
21804;SDS011;11064;47.102;15.452;2024-01-30T08:37:09;11.65;;;6.10;;
21804;SDS011;11064;47.102;15.452;2024-01-30T08:39:34;17.85;;;6.20;;
21804;SDS011;11064;47.102;15.452;2024-01-30T08:42:00;14.30;;;6.05;;
21804;SDS011;11064;47.102;15.452;2024-01-30T08:44:26;13.75;;;6.20;;
21804;SDS011;11064;47.102;15.452;2024-01-30T08:46:52;10.90;;;6.07;;
21804;SDS011;11064;47.102;15.452;2024-01-30T08:49:19;10.65;;;6.43;;
21804;SDS011;11064;47.102;15.452;2024-01-30T08:51:45;13.80;;;5.88;;
21804;SDS011;11064;47.102;15.452;2024-01-30T08:54:12;14.73;;;6.18;;
21804;SDS011;11064;47.102;15.452;2024-01-30T08:56:38;9.40;;;5.95;;
21804;SDS011;11064;47.102;15.452;2024-01-30T08:59:04;12.05;;;6.63;;
21804;SDS011;11064;47.102;15.452;2024-01-30T09:01:29;11.70;;;5.93;;
21804;SDS011;11064;47.102;15.452;2024-01-30T09:03:55;11.93;;;6.68;;
21804;SDS011;11064;47.102;15.452;2024-01-30T09:06:21;14.48;;;6.28;;
21804;SDS011;11064;47.102;15.452;2024-01-30T09:08:47;11.50;;;6.30;;
21804;SDS011;11064;47.102;15.452;2024-01-30T09:11:13;10.70;;;5.95;;
21804;SDS011;11064;47.102;15.452;2024-01-30T09:13:40;11.52;;;6.25;;
21804;SDS011;11064;47.102;15.452;2024-01-30T09:16:07;11.88;;;6.68;;
21804;SDS011;11064;47.102;15.452;2024-01-30T09:18:33;11.75;;;6.53;;
21804;SDS011;11064;47.102;15.452;2024-01-30T09:20:59;13.38;;;6.88;;
21804;SDS011;11064;47.102;15.452;2024-01-30T09:23:25;12.75;;;6.68;;
21804;SDS011;11064;47.102;15.452;2024-01-30T09:25:52;13.02;;;7.40;;
21804;SDS011;11064;47.102;15.452;2024-01-30T09:28:18;13.80;;;6.65;;
21804;SDS011;11064;47.102;15.452;2024-01-30T09:30:44;12.85;;;6.55;;
21804;SDS011;11064;47.102;15.452;2024-01-30T09:33:10;13.38;;;6.88;;
21804;SDS011;11064;47.102;15.452;2024-01-30T09:35:36;11.35;;;7.20;;
21804;SDS011;11064;47.102;15.452;2024-01-30T09:38:02;12.07;;;6.93;;
21804;SDS011;11064;47.102;15.452;2024-01-30T09:40:28;13.55;;;7.75;;
21804;SDS011;11064;47.102;15.452;2024-01-30T09:42:54;15.43;;;7.25;;
21804;SDS011;11064;47.102;15.452;2024-01-30T09:45:24;14.07;;;7.40;;
21804;SDS011;11064;47.102;15.452;2024-01-30T09:47:51;11.70;;;6.90;;
21804;SDS011;11064;47.102;15.452;2024-01-30T09:50:18;13.95;;;8.00;;
21804;SDS011;11064;47.102;15.452;2024-01-30T09:52:45;18.63;;;7.82;;
21804;SDS011;11064;47.102;15.452;2024-01-30T09:55:12;15.00;;;7.05;;
21804;SDS011;11064;47.102;15.452;2024-01-30T09:57:38;14.48;;;7.68;;
21804;SDS011;11064;47.102;15.452;2024-01-30T10:00:05;14.00;;;7.40;;
21804;SDS011;11064;47.102;15.452;2024-01-30T10:02:35;14.00;;;6.68;;
21804;SDS011;11064;47.102;15.452;2024-01-30T10:05:01;13.18;;;6.93;;
21804;SDS011;11064;47.102;15.452;2024-01-30T10:07:27;13.38;;;7.18;;
21804;SDS011;11064;47.102;15.452;2024-01-30T10:09:53;13.18;;;6.97;;
21804;SDS011;11064;47.102;15.452;2024-01-30T10:12:21;15.40;;;7.35;;
21804;SDS011;11064;47.102;15.452;2024-01-30T10:14:47;12.30;;;7.13;;
21804;SDS011;11064;47.102;15.452;2024-01-30T10:17:13;13.98;;;7.53;;
21804;SDS011;11064;47.102;15.452;2024-01-30T10:19:39;19.90;;;8.73;;
21804;SDS011;11064;47.102;15.452;2024-01-30T10:22:06;25.13;;;11.40;;
21804;SDS011;11064;47.102;15.452;2024-01-30T10:24:36;18.90;;;9.38;;
21804;SDS011;11064;47.102;15.452;2024-01-30T10:27:02;17.45;;;10.00;;
21804;SDS011;11064;47.102;15.452;2024-01-30T10:29:31;17.88;;;9.85;;
21804;SDS011;11064;47.102;15.452;2024-01-30T10:32:06;18.10;;;10.57;;
21804;SDS011;11064;47.102;15.452;2024-01-30T10:34:32;28.33;;;11.40;;
21804;SDS011;11064;47.102;15.452;2024-01-30T10:37:07;22.02;;;11.52;;
21804;SDS011;11064;47.102;15.452;2024-01-30T10:39:41;26.60;;;13.38;;
21804;SDS011;11064;47.102;15.452;2024-01-30T10:44:52;30.33;;;15.30;;
21804;SDS011;11064;47.102;15.452;2024-01-30T10:47:50;29.63;;;15.55;;
21804;SDS011;11064;47.102;15.452;2024-01-30T10:50:19;27.60;;;16.08;;
21804;SDS011;11064;47.102;15.452;2024-01-30T10:52:46;28.38;;;15.55;;
21804;SDS011;11064;47.102;15.452;2024-01-30T10:55:13;34.28;;;17.23;;
21804;SDS011;11064;47.102;15.452;2024-01-30T10:57:41;29.83;;;17.42;;
21804;SDS011;11064;47.102;15.452;2024-01-30T11:00:13;29.23;;;15.73;;
21804;SDS011;11064;47.102;15.452;2024-01-30T11:02:43;30.58;;;17.17;;
21804;SDS011;11064;47.102;15.452;2024-01-30T11:05:10;29.13;;;17.10;;
21804;SDS011;11064;47.102;15.452;2024-01-30T11:07:38;30.23;;;17.60;;
21804;SDS011;11064;47.102;15.452;2024-01-30T11:10:06;32.75;;;17.63;;
21804;SDS011;11064;47.102;15.452;2024-01-30T11:12:38;36.17;;;17.05;;
21804;SDS011;11064;47.102;15.452;2024-01-30T11:15:09;33.53;;;17.40;;
21804;SDS011;11064;47.102;15.452;2024-01-30T11:20:22;35.13;;;18.23;;
21804;SDS011;11064;47.102;15.452;2024-01-30T11:22:50;28.17;;;16.75;;
21804;SDS011;11064;47.102;15.452;2024-01-30T11:25:17;30.50;;;17.50;;
21804;SDS011;11064;47.102;15.452;2024-01-30T11:27:45;31.77;;;17.95;;
21804;SDS011;11064;47.102;15.452;2024-01-30T11:30:24;31.55;;;17.40;;
21804;SDS011;11064;47.102;15.452;2024-01-30T11:33:07;33.72;;;17.55;;
21804;SDS011;11064;47.102;15.452;2024-01-30T11:35:41;29.02;;;16.50;;
21804;SDS011;11064;47.102;15.452;2024-01-30T11:38:08;26.90;;;16.77;;
21804;SDS011;11064;47.102;15.452;2024-01-30T11:40:36;27.25;;;15.98;;
21804;SDS011;11064;47.102;15.452;2024-01-30T11:43:04;30.35;;;16.55;;
21804;SDS011;11064;47.102;15.452;2024-01-30T11:45:32;28.52;;;16.65;;
21804;SDS011;11064;47.102;15.452;2024-01-30T11:47:58;28.77;;;16.60;;
21804;SDS011;11064;47.102;15.452;2024-01-30T11:50:34;27.42;;;16.20;;
21804;SDS011;11064;47.102;15.452;2024-01-30T11:53:03;30.48;;;16.45;;
21804;SDS011;11064;47.102;15.452;2024-01-30T11:55:30;29.85;;;16.50;;
21804;SDS011;11064;47.102;15.452;2024-01-30T11:57:56;26.33;;;15.52;;
21804;SDS011;11064;47.102;15.452;2024-01-30T12:00:23;29.50;;;16.77;;
21804;SDS011;11064;47.102;15.452;2024-01-30T12:02:50;28.33;;;15.80;;
21804;SDS011;11064;47.102;15.452;2024-01-30T12:05:25;24.48;;;14.77;;
21804;SDS011;11064;47.102;15.452;2024-01-30T12:07:52;24.90;;;15.57;;
21804;SDS011;11064;47.102;15.452;2024-01-30T12:10:18;30.35;;;16.23;;
21804;SDS011;11064;47.102;15.452;2024-01-30T12:12:45;23.85;;;14.43;;
21804;SDS011;11064;47.102;15.452;2024-01-30T12:15:13;26.55;;;14.95;;
21804;SDS011;11064;47.102;15.452;2024-01-30T12:17:40;28.23;;;15.18;;
21804;SDS011;11064;47.102;15.452;2024-01-30T12:20:10;26.13;;;15.32;;
21804;SDS011;11064;47.102;15.452;2024-01-30T12:22:38;24.15;;;14.80;;
21804;SDS011;11064;47.102;15.452;2024-01-30T12:25:08;23.95;;;14.63;;
21804;SDS011;11064;47.102;15.452;2024-01-30T12:27:35;25.58;;;13.93;;
21804;SDS011;11064;47.102;15.452;2024-01-30T12:30:04;26.58;;;13.93;;
21804;SDS011;11064;47.102;15.452;2024-01-30T12:32:36;26.90;;;14.35;;
21804;SDS011;11064;47.102;15.452;2024-01-30T12:35:07;24.10;;;14.18;;
21804;SDS011;11064;47.102;15.452;2024-01-30T12:37:34;24.90;;;14.20;;
21804;SDS011;11064;47.102;15.452;2024-01-30T12:40:01;25.52;;;13.77;;
21804;SDS011;11064;47.102;15.452;2024-01-30T12:42:27;23.25;;;13.40;;
21804;SDS011;11064;47.102;15.452;2024-01-30T12:44:53;23.42;;;13.52;;
21804;SDS011;11064;47.102;15.452;2024-01-30T12:47:21;22.95;;;13.32;;
21804;SDS011;11064;47.102;15.452;2024-01-30T12:49:47;23.50;;;13.30;;
21804;SDS011;11064;47.102;15.452;2024-01-30T12:52:13;22.92;;;13.27;;
21804;SDS011;11064;47.102;15.452;2024-01-30T12:54:41;24.08;;;13.15;;
21804;SDS011;11064;47.102;15.452;2024-01-30T12:57:07;23.13;;;12.93;;
21804;SDS011;11064;47.102;15.452;2024-01-30T12:59:33;22.17;;;12.35;;
21804;SDS011;11064;47.102;15.452;2024-01-30T13:02:00;21.08;;;12.38;;
21804;SDS011;11064;47.102;15.452;2024-01-30T13:04:28;22.33;;;12.98;;
21804;SDS011;11064;47.102;15.452;2024-01-30T13:06:54;19.67;;;11.98;;
21804;SDS011;11064;47.102;15.452;2024-01-30T13:09:20;20.90;;;12.38;;
21804;SDS011;11064;47.102;15.452;2024-01-30T13:11:46;21.67;;;12.38;;
21804;SDS011;11064;47.102;15.452;2024-01-30T13:14:12;20.73;;;11.85;;
21804;SDS011;11064;47.102;15.452;2024-01-30T13:16:38;20.20;;;12.43;;
21804;SDS011;11064;47.102;15.452;2024-01-30T13:19:03;21.23;;;12.23;;
21804;SDS011;11064;47.102;15.452;2024-01-30T13:21:29;18.38;;;11.35;;
21804;SDS011;11064;47.102;15.452;2024-01-30T13:23:55;22.27;;;11.65;;
21804;SDS011;11064;47.102;15.452;2024-01-30T13:26:21;20.50;;;12.27;;
21804;SDS011;11064;47.102;15.452;2024-01-30T13:28:47;19.80;;;12.15;;
21804;SDS011;11064;47.102;15.452;2024-01-30T13:31:16;21.13;;;11.82;;
21804;SDS011;11064;47.102;15.452;2024-01-30T13:33:42;24.95;;;12.10;;
21804;SDS011;11064;47.102;15.452;2024-01-30T13:36:08;20.02;;;11.13;;
21804;SDS011;11064;47.102;15.452;2024-01-30T13:38:35;25.10;;;11.55;;
21804;SDS011;11064;47.102;15.452;2024-01-30T13:41:01;20.48;;;11.48;;
21804;SDS011;11064;47.102;15.452;2024-01-30T13:43:27;18.35;;;11.25;;
21804;SDS011;11064;47.102;15.452;2024-01-30T13:45:53;21.42;;;12.30;;
21804;SDS011;11064;47.102;15.452;2024-01-30T13:48:20;20.05;;;11.23;;
21804;SDS011;11064;47.102;15.452;2024-01-30T13:50:46;19.08;;;11.85;;
21804;SDS011;11064;47.102;15.452;2024-01-30T13:53:12;22.40;;;11.63;;
21804;SDS011;11064;47.102;15.452;2024-01-30T13:55:38;20.88;;;11.70;;
21804;SDS011;11064;47.102;15.452;2024-01-30T13:58:05;21.70;;;11.50;;
21804;SDS011;11064;47.102;15.452;2024-01-30T14:00:31;18.13;;;11.75;;
21804;SDS011;11064;47.102;15.452;2024-01-30T14:02:59;24.30;;;11.55;;
21804;SDS011;11064;47.102;15.452;2024-01-30T14:05:25;17.65;;;11.57;;
21804;SDS011;11064;47.102;15.452;2024-01-30T14:07:54;22.05;;;11.95;;
21804;SDS011;11064;47.102;15.452;2024-01-30T14:10:22;16.13;;;10.95;;
21804;SDS011;11064;47.102;15.452;2024-01-30T14:12:48;20.48;;;11.40;;
21804;SDS011;11064;47.102;15.452;2024-01-30T14:15:14;18.02;;;11.18;;
21804;SDS011;11064;47.102;15.452;2024-01-30T14:17:40;21.67;;;11.98;;
21804;SDS011;11064;47.102;15.452;2024-01-30T14:20:06;19.10;;;11.23;;
21804;SDS011;11064;47.102;15.452;2024-01-30T14:22:36;22.55;;;11.60;;
21804;SDS011;11064;47.102;15.452;2024-01-30T14:25:02;18.27;;;11.13;;
21804;SDS011;11064;47.102;15.452;2024-01-30T14:27:31;16.98;;;11.20;;
21804;SDS011;11064;47.102;15.452;2024-01-30T14:29:57;20.70;;;11.38;;
21804;SDS011;11064;47.102;15.452;2024-01-30T14:32:23;16.02;;;11.10;;
21804;SDS011;11064;47.102;15.452;2024-01-30T14:34:53;20.52;;;11.13;;
21804;SDS011;11064;47.102;15.452;2024-01-30T14:37:19;23.15;;;11.00;;
21804;SDS011;11064;47.102;15.452;2024-01-30T14:39:45;18.80;;;11.25;;
21804;SDS011;11064;47.102;15.452;2024-01-30T14:42:12;19.77;;;11.68;;
21804;SDS011;11064;47.102;15.452;2024-01-30T14:44:38;21.02;;;11.90;;
21804;SDS011;11064;47.102;15.452;2024-01-30T14:47:04;18.13;;;11.30;;
21804;SDS011;11064;47.102;15.452;2024-01-30T14:49:31;19.83;;;12.18;;
21804;SDS011;11064;47.102;15.452;2024-01-30T14:51:57;17.70;;;11.77;;
21804;SDS011;11064;47.102;15.452;2024-01-30T14:54:24;22.85;;;12.80;;
21804;SDS011;11064;47.102;15.452;2024-01-30T14:56:49;22.77;;;12.85;;
21804;SDS011;11064;47.102;15.452;2024-01-30T14:59:15;18.02;;;12.02;;
21804;SDS011;11064;47.102;15.452;2024-01-30T15:01:41;20.92;;;12.43;;
21804;SDS011;11064;47.102;15.452;2024-01-30T15:04:08;20.50;;;11.75;;
21804;SDS011;11064;47.102;15.452;2024-01-30T15:06:34;22.90;;;12.45;;
21804;SDS011;11064;47.102;15.452;2024-01-30T15:08:59;19.75;;;12.45;;
21804;SDS011;11064;47.102;15.452;2024-01-30T15:11:25;21.60;;;12.30;;
21804;SDS011;11064;47.102;15.452;2024-01-30T15:13:51;22.27;;;12.45;;
21804;SDS011;11064;47.102;15.452;2024-01-30T15:16:17;19.83;;;12.48;;
21804;SDS011;11064;47.102;15.452;2024-01-30T15:18:43;22.80;;;12.00;;
21804;SDS011;11064;47.102;15.452;2024-01-30T15:21:08;20.63;;;13.00;;
21804;SDS011;11064;47.102;15.452;2024-01-30T15:23:34;22.48;;;12.90;;
21804;SDS011;11064;47.102;15.452;2024-01-30T15:26:00;26.25;;;12.68;;
21804;SDS011;11064;47.102;15.452;2024-01-30T15:28:35;20.63;;;11.57;;
21804;SDS011;11064;47.102;15.452;2024-01-30T15:31:03;22.60;;;11.85;;
21804;SDS011;11064;47.102;15.452;2024-01-30T15:33:30;19.55;;;12.15;;
21804;SDS011;11064;47.102;15.452;2024-01-30T15:35:56;19.48;;;11.68;;
21804;SDS011;11064;47.102;15.452;2024-01-30T15:38:23;20.77;;;12.23;;
21804;SDS011;11064;47.102;15.452;2024-01-30T15:40:49;22.45;;;12.68;;
21804;SDS011;11064;47.102;15.452;2024-01-30T15:43:15;21.77;;;12.85;;
21804;SDS011;11064;47.102;15.452;2024-01-30T15:45:41;19.20;;;12.18;;
21804;SDS011;11064;47.102;15.452;2024-01-30T15:48:07;21.52;;;12.63;;
21804;SDS011;11064;47.102;15.452;2024-01-30T15:50:33;32.70;;;19.10;;
21804;SDS011;11064;47.102;15.452;2024-01-30T15:52:59;21.13;;;13.75;;
21804;SDS011;11064;47.102;15.452;2024-01-30T15:55:25;24.90;;;14.55;;
21804;SDS011;11064;47.102;15.452;2024-01-30T15:57:51;21.77;;;14.13;;
21804;SDS011;11064;47.102;15.452;2024-01-30T16:00:17;22.33;;;13.65;;
21804;SDS011;11064;47.102;15.452;2024-01-30T16:02:42;26.60;;;14.02;;
21804;SDS011;11064;47.102;15.452;2024-01-30T16:05:08;24.33;;;14.13;;
21804;SDS011;11064;47.102;15.452;2024-01-30T16:07:35;23.20;;;13.70;;
21804;SDS011;11064;47.102;15.452;2024-01-30T16:10:01;19.70;;;13.35;;
21804;SDS011;11064;47.102;15.452;2024-01-30T16:12:27;24.30;;;13.40;;
21804;SDS011;11064;47.102;15.452;2024-01-30T16:14:53;25.08;;;14.60;;
21804;SDS011;11064;47.102;15.452;2024-01-30T16:17:19;26.80;;;14.88;;
21804;SDS011;11064;47.102;15.452;2024-01-30T16:19:46;25.92;;;14.43;;
21804;SDS011;11064;47.102;15.452;2024-01-30T16:22:14;22.45;;;13.77;;
21804;SDS011;11064;47.102;15.452;2024-01-30T16:24:39;21.83;;;13.07;;
21804;SDS011;11064;47.102;15.452;2024-01-30T16:27:05;23.83;;;14.02;;
21804;SDS011;11064;47.102;15.452;2024-01-30T16:29:31;25.67;;;14.02;;
21804;SDS011;11064;47.102;15.452;2024-01-30T16:31:57;27.52;;;14.30;;
21804;SDS011;11064;47.102;15.452;2024-01-30T16:34:23;25.67;;;14.57;;
21804;SDS011;11064;47.102;15.452;2024-01-30T16:36:49;25.02;;;14.10;;
21804;SDS011;11064;47.102;15.452;2024-01-30T16:39:15;23.48;;;13.73;;
21804;SDS011;11064;47.102;15.452;2024-01-30T16:41:41;23.20;;;14.07;;
21804;SDS011;11064;47.102;15.452;2024-01-30T16:44:06;32.22;;;15.60;;
21804;SDS011;11064;47.102;15.452;2024-01-30T16:46:32;24.58;;;14.65;;
21804;SDS011;11064;47.102;15.452;2024-01-30T16:48:58;26.38;;;15.00;;
21804;SDS011;11064;47.102;15.452;2024-01-30T16:51:24;22.63;;;14.20;;
21804;SDS011;11064;47.102;15.452;2024-01-30T16:53:50;27.00;;;14.70;;
21804;SDS011;11064;47.102;15.452;2024-01-30T16:56:16;23.83;;;13.32;;
21804;SDS011;11064;47.102;15.452;2024-01-30T16:58:41;23.50;;;14.15;;
21804;SDS011;11064;47.102;15.452;2024-01-30T17:01:07;25.35;;;14.07;;
21804;SDS011;11064;47.102;15.452;2024-01-30T17:03:33;25.10;;;14.50;;
21804;SDS011;11064;47.102;15.452;2024-01-30T17:05:59;26.88;;;14.15;;
21804;SDS011;11064;47.102;15.452;2024-01-30T17:08:33;25.27;;;15.07;;
21804;SDS011;11064;47.102;15.452;2024-01-30T17:10:59;25.95;;;15.93;;
21804;SDS011;11064;47.102;15.452;2024-01-30T17:13:25;28.98;;;15.45;;
21804;SDS011;11064;47.102;15.452;2024-01-30T17:15:51;26.27;;;15.20;;
21804;SDS011;11064;47.102;15.452;2024-01-30T17:18:17;22.65;;;14.40;;
21804;SDS011;11064;47.102;15.452;2024-01-30T17:20:43;27.52;;;15.55;;
21804;SDS011;11064;47.102;15.452;2024-01-30T17:23:09;26.38;;;15.52;;
21804;SDS011;11064;47.102;15.452;2024-01-30T17:25:36;23.48;;;14.93;;
21804;SDS011;11064;47.102;15.452;2024-01-30T17:28:02;25.95;;;15.98;;
21804;SDS011;11064;47.102;15.452;2024-01-30T17:30:27;25.05;;;15.35;;
21804;SDS011;11064;47.102;15.452;2024-01-30T17:32:53;26.17;;;16.45;;
21804;SDS011;11064;47.102;15.452;2024-01-30T17:35:19;23.45;;;14.82;;
21804;SDS011;11064;47.102;15.452;2024-01-30T17:37:45;25.58;;;14.75;;
21804;SDS011;11064;47.102;15.452;2024-01-30T17:40:11;37.80;;;20.08;;
21804;SDS011;11064;47.102;15.452;2024-01-30T17:42:37;43.65;;;24.27;;
21804;SDS011;11064;47.102;15.452;2024-01-30T17:45:03;74.25;;;40.47;;
21804;SDS011;11064;47.102;15.452;2024-01-30T17:47:29;52.85;;;31.08;;
21804;SDS011;11064;47.102;15.452;2024-01-30T17:49:56;56.92;;;30.77;;
21804;SDS011;11064;47.102;15.452;2024-01-30T17:52:22;33.83;;;19.42;;
21804;SDS011;11064;47.102;15.452;2024-01-30T17:54:48;27.92;;;17.33;;
21804;SDS011;11064;47.102;15.452;2024-01-30T17:57:14;30.02;;;19.80;;
21804;SDS011;11064;47.102;15.452;2024-01-30T17:59:40;72.75;;;48.15;;
21804;SDS011;11064;47.102;15.452;2024-01-30T18:02:07;45.00;;;29.00;;
21804;SDS011;11064;47.102;15.452;2024-01-30T18:04:36;50.10;;;31.25;;
21804;SDS011;11064;47.102;15.452;2024-01-30T18:07:04;42.85;;;26.13;;
21804;SDS011;11064;47.102;15.452;2024-01-30T18:09:30;42.42;;;22.60;;
21804;SDS011;11064;47.102;15.452;2024-01-30T18:11:56;27.30;;;16.92;;
21804;SDS011;11064;47.102;15.452;2024-01-30T18:14:22;27.00;;;15.20;;
21804;SDS011;11064;47.102;15.452;2024-01-30T18:16:48;24.10;;;14.35;;
21804;SDS011;11064;47.102;15.452;2024-01-30T18:19:14;25.75;;;15.02;;
21804;SDS011;11064;47.102;15.452;2024-01-30T18:21:40;21.55;;;14.48;;
21804;SDS011;11064;47.102;15.452;2024-01-30T18:24:07;28.70;;;15.50;;
21804;SDS011;11064;47.102;15.452;2024-01-30T18:26:33;23.65;;;14.73;;
21804;SDS011;11064;47.102;15.452;2024-01-30T18:29:01;25.15;;;14.77;;
21804;SDS011;11064;47.102;15.452;2024-01-30T18:31:27;25.30;;;14.70;;
21804;SDS011;11064;47.102;15.452;2024-01-30T18:33:53;24.80;;;15.02;;
21804;SDS011;11064;47.102;15.452;2024-01-30T18:36:20;34.25;;;16.67;;
21804;SDS011;11064;47.102;15.452;2024-01-30T18:38:50;30.83;;;17.40;;
21804;SDS011;11064;47.102;15.452;2024-01-30T18:41:16;29.33;;;17.52;;
21804;SDS011;11064;47.102;15.452;2024-01-30T18:43:43;28.45;;;16.02;;
21804;SDS011;11064;47.102;15.452;2024-01-30T18:46:10;26.15;;;15.50;;
21804;SDS011;11064;47.102;15.452;2024-01-30T18:48:37;27.95;;;15.40;;
21804;SDS011;11064;47.102;15.452;2024-01-30T18:51:03;28.30;;;15.73;;
21804;SDS011;11064;47.102;15.452;2024-01-30T18:53:30;25.17;;;15.93;;
21804;SDS011;11064;47.102;15.452;2024-01-30T18:55:56;29.75;;;16.23;;
21804;SDS011;11064;47.102;15.452;2024-01-30T18:58:23;28.98;;;16.02;;
21804;SDS011;11064;47.102;15.452;2024-01-30T19:00:50;24.40;;;15.05;;
21804;SDS011;11064;47.102;15.452;2024-01-30T19:03:16;26.15;;;15.48;;
21804;SDS011;11064;47.102;15.452;2024-01-30T19:05:43;26.00;;;15.25;;
21804;SDS011;11064;47.102;15.452;2024-01-30T19:08:10;28.42;;;15.20;;
21804;SDS011;11064;47.102;15.452;2024-01-30T19:10:36;24.58;;;14.60;;
21804;SDS011;11064;47.102;15.452;2024-01-30T19:13:02;24.60;;;14.52;;
21804;SDS011;11064;47.102;15.452;2024-01-30T19:15:31;25.92;;;14.75;;
21804;SDS011;11064;47.102;15.452;2024-01-30T19:17:58;25.77;;;15.05;;
21804;SDS011;11064;47.102;15.452;2024-01-30T19:20:25;30.23;;;15.52;;